sensor_id;sensor_type;location;lat;lon;timestamp;temperature;humidity
1179;DHT22;578;48.408;10.004;2023-02-01T00:01:14;2.80;99.90
1179;DHT22;578;48.408;10.004;2023-02-01T00:03:40;2.80;99.90
1179;DHT22;578;48.408;10.004;2023-02-01T00:06:07;2.80;99.90
1179;DHT22;578;48.408;10.004;2023-02-01T00:08:34;2.80;99.90
1179;DHT22;578;48.408;10.004;2023-02-01T00:11:03;2.80;99.90
1179;DHT22;578;48.408;10.004;2023-02-01T00:13:31;2.70;99.90
1179;DHT22;578;48.408;10.004;2023-02-01T00:16:04;2.70;99.90
1179;DHT22;578;48.408;10.004;2023-02-01T00:18:33;2.80;99.90
1179;DHT22;578;48.408;10.004;2023-02-01T00:21:00;2.70;99.90
1179;DHT22;578;48.408;10.004;2023-02-01T00:23:27;2.80;99.90
1179;DHT22;578;48.408;10.004;2023-02-01T00:25:53;2.80;99.90
1179;DHT22;578;48.408;10.004;2023-02-01T00:28:20;2.70;99.90
1179;DHT22;578;48.408;10.004;2023-02-01T00:30:47;2.70;99.90
1179;DHT22;578;48.408;10.004;2023-02-01T00:33:21;2.60;99.90
1179;DHT22;578;48.408;10.004;2023-02-01T00:35:49;2.70;99.90
1179;DHT22;578;48.408;10.004;2023-02-01T00:38:16;2.70;99.90
1179;DHT22;578;48.408;10.004;2023-02-01T00:40:43;2.60;99.90
1179;DHT22;578;48.408;10.004;2023-02-01T00:43:09;2.70;99.90
1179;DHT22;578;48.408;10.004;2023-02-01T00:45:36;2.70;99.90
1179;DHT22;578;48.408;10.004;2023-02-01T00:48:03;2.70;99.90
1179;DHT22;578;48.408;10.004;2023-02-01T00:50:30;2.70;99.90
1179;DHT22;578;48.408;10.004;2023-02-01T00:52:58;2.70;99.90
1179;DHT22;578;48.408;10.004;2023-02-01T00:55:25;2.60;99.90
1179;DHT22;578;48.408;10.004;2023-02-01T00:57:51;2.70;99.90
1179;DHT22;578;48.408;10.004;2023-02-01T01:00:18;2.60;99.90
1179;DHT22;578;48.408;10.004;2023-02-01T01:02:45;2.70;99.90
1179;DHT22;578;48.408;10.004;2023-02-01T01:05:12;2.60;99.90
1179;DHT22;578;48.408;10.004;2023-02-01T01:07:38;2.60;99.90
1179;DHT22;578;48.408;10.004;2023-02-01T01:10:09;2.70;99.90
1179;DHT22;578;48.408;10.004;2023-02-01T01:12:35;2.70;99.90
1179;DHT22;578;48.408;10.004;2023-02-01T01:15:03;2.70;99.90
1179;DHT22;578;48.408;10.004;2023-02-01T01:17:31;2.60;99.90
1179;DHT22;578;48.408;10.004;2023-02-01T01:19:57;2.60;99.90
1179;DHT22;578;48.408;10.004;2023-02-01T01:22:24;2.70;99.90
1179;DHT22;578;48.408;10.004;2023-02-01T01:24:51;2.70;99.90
1179;DHT22;578;48.408;10.004;2023-02-01T01:27:19;2.70;99.90
1179;DHT22;578;48.408;10.004;2023-02-01T01:29:49;2.60;99.90
1179;DHT22;578;48.408;10.004;2023-02-01T01:32:16;2.60;99.90
1179;DHT22;578;48.408;10.004;2023-02-01T01:34:42;2.50;99.90
1179;DHT22;578;48.408;10.004;2023-02-01T01:37:09;2.60;99.90
1179;DHT22;578;48.408;10.004;2023-02-01T01:39:35;2.60;99.90
1179;DHT22;578;48.408;10.004;2023-02-01T01:42:02;2.50;99.90
1179;DHT22;578;48.408;10.004;2023-02-01T01:44:59;2.50;99.90
1179;DHT22;578;48.408;10.004;2023-02-01T01:47:30;2.50;99.90
1179;DHT22;578;48.408;10.004;2023-02-01T01:49:57;2.50;99.90
1179;DHT22;578;48.408;10.004;2023-02-01T01:52:24;2.50;99.90
1179;DHT22;578;48.408;10.004;2023-02-01T01:54:51;2.40;99.90
1179;DHT22;578;48.408;10.004;2023-02-01T01:57:24;2.40;99.90
1179;DHT22;578;48.408;10.004;2023-02-01T01:59:56;2.40;99.90
1179;DHT22;578;48.408;10.004;2023-02-01T02:02:26;2.40;99.90
1179;DHT22;578;48.408;10.004;2023-02-01T02:04:53;2.40;99.90
1179;DHT22;578;48.408;10.004;2023-02-01T02:07:22;2.40;99.90
1179;DHT22;578;48.408;10.004;2023-02-01T02:09:50;2.40;99.90
1179;DHT22;578;48.408;10.004;2023-02-01T02:12:17;2.40;99.90
1179;DHT22;578;48.408;10.004;2023-02-01T02:14:45;2.30;99.90
1179;DHT22;578;48.408;10.004;2023-02-01T02:17:21;2.50;99.90
1179;DHT22;578;48.408;10.004;2023-02-01T02:20:25;2.50;99.90
1179;DHT22;578;48.408;10.004;2023-02-01T02:23:29;2.40;99.90
1179;DHT22;578;48.408;10.004;2023-02-01T02:35:28;2.40;99.90
1179;DHT22;578;48.408;10.004;2023-02-01T02:38:12;2.40;99.90
1179;DHT22;578;48.408;10.004;2023-02-01T02:40:45;2.40;99.90
1179;DHT22;578;48.408;10.004;2023-02-01T02:43:19;2.40;99.90
1179;DHT22;578;48.408;10.004;2023-02-01T02:46:14;2.40;99.90
1179;DHT22;578;48.408;10.004;2023-02-01T02:49:04;2.40;99.90
1179;DHT22;578;48.408;10.004;2023-02-01T02:51:37;2.50;99.90
1179;DHT22;578;48.408;10.004;2023-02-01T02:54:24;2.50;99.90
1179;DHT22;578;48.408;10.004;2023-02-01T02:57:15;2.50;99.90
1179;DHT22;578;48.408;10.004;2023-02-01T03:00:03;2.50;99.90
1179;DHT22;578;48.408;10.004;2023-02-01T03:02:48;2.50;99.90
1179;DHT22;578;48.408;10.004;2023-02-01T03:05:33;2.50;99.90
1179;DHT22;578;48.408;10.004;2023-02-01T03:08:11;2.60;99.90
1179;DHT22;578;48.408;10.004;2023-02-01T03:10:50;2.50;99.90
1179;DHT22;578;48.408;10.004;2023-02-01T03:13:25;2.50;99.90
1179;DHT22;578;48.408;10.004;2023-02-01T03:15:58;2.50;99.90
1179;DHT22;578;48.408;10.004;2023-02-01T03:18:30;2.50;99.90
1179;DHT22;578;48.408;10.004;2023-02-01T03:21:03;2.50;99.90
1179;DHT22;578;48.408;10.004;2023-02-01T03:23:35;2.50;99.90
1179;DHT22;578;48.408;10.004;2023-02-01T03:26:05;2.50;99.90
1179;DHT22;578;48.408;10.004;2023-02-01T03:28:34;2.50;99.90
1179;DHT22;578;48.408;10.004;2023-02-01T03:31:01;2.50;99.90
1179;DHT22;578;48.408;10.004;2023-02-01T03:33:29;2.40;99.90
1179;DHT22;578;48.408;10.004;2023-02-01T03:36:12;2.50;99.90
1179;DHT22;578;48.408;10.004;2023-02-01T03:38:48;2.50;99.90
1179;DHT22;578;48.408;10.004;2023-02-01T03:41:22;2.50;99.90
1179;DHT22;578;48.408;10.004;2023-02-01T03:43:53;2.60;99.90
1179;DHT22;578;48.408;10.004;2023-02-01T03:46:27;2.60;99.90
1179;DHT22;578;48.408;10.004;2023-02-01T03:49:00;2.60;99.90
1179;DHT22;578;48.408;10.004;2023-02-01T03:51:28;2.60;99.90
1179;DHT22;578;48.408;10.004;2023-02-01T03:53:58;2.60;99.90
1179;DHT22;578;48.408;10.004;2023-02-01T03:56:28;2.50;99.90
1179;DHT22;578;48.408;10.004;2023-02-01T03:58:56;2.60;99.90
1179;DHT22;578;48.408;10.004;2023-02-01T04:01:27;2.60;99.90
1179;DHT22;578;48.408;10.004;2023-02-01T04:03:53;2.60;99.90
1179;DHT22;578;48.408;10.004;2023-02-01T04:06:20;2.50;99.90
1179;DHT22;578;48.408;10.004;2023-02-01T04:08:47;2.40;99.90
1179;DHT22;578;48.408;10.004;2023-02-01T04:11:15;2.40;99.90
1179;DHT22;578;48.408;10.004;2023-02-01T04:13:42;2.50;99.90
1179;DHT22;578;48.408;10.004;2023-02-01T04:16:09;2.40;99.90
1179;DHT22;578;48.408;10.004;2023-02-01T04:18:36;2.40;99.90
1179;DHT22;578;48.408;10.004;2023-02-01T04:21:03;2.40;99.90
1179;DHT22;578;48.408;10.004;2023-02-01T04:23:30;2.40;99.90
1179;DHT22;578;48.408;10.004;2023-02-01T04:25:59;2.40;99.90
1179;DHT22;578;48.408;10.004;2023-02-01T04:28:28;2.40;99.90
1179;DHT22;578;48.408;10.004;2023-02-01T04:30:55;2.50;99.90
1179;DHT22;578;48.408;10.004;2023-02-01T04:33:22;2.50;99.90
1179;DHT22;578;48.408;10.004;2023-02-01T04:35:49;2.50;99.90
1179;DHT22;578;48.408;10.004;2023-02-01T04:38:15;2.50;99.90
1179;DHT22;578;48.408;10.004;2023-02-01T04:40:43;2.50;99.90
1179;DHT22;578;48.408;10.004;2023-02-01T04:43:09;2.50;99.90
1179;DHT22;578;48.408;10.004;2023-02-01T04:45:37;2.50;99.90
1179;DHT22;578;48.408;10.004;2023-02-01T04:48:04;2.50;99.90
1179;DHT22;578;48.408;10.004;2023-02-01T04:50:31;2.50;99.90
1179;DHT22;578;48.408;10.004;2023-02-01T04:52:58;2.40;99.90
1179;DHT22;578;48.408;10.004;2023-02-01T04:55:24;2.40;99.90
1179;DHT22;578;48.408;10.004;2023-02-01T04:57:51;2.50;99.90
1179;DHT22;578;48.408;10.004;2023-02-01T05:00:18;2.60;99.90
1179;DHT22;578;48.408;10.004;2023-02-01T05:02:46;2.60;99.90
1179;DHT22;578;48.408;10.004;2023-02-01T05:05:13;2.50;99.90
1179;DHT22;578;48.408;10.004;2023-02-01T05:07:40;2.60;99.90
1179;DHT22;578;48.408;10.004;2023-02-01T05:10:08;2.60;99.90
1179;DHT22;578;48.408;10.004;2023-02-01T05:12:34;2.50;99.90
1179;DHT22;578;48.408;10.004;2023-02-01T05:15:18;2.50;99.90
1179;DHT22;578;48.408;10.004;2023-02-01T05:17:46;2.50;99.90
1179;DHT22;578;48.408;10.004;2023-02-01T05:20:13;2.50;99.90
1179;DHT22;578;48.408;10.004;2023-02-01T05:22:41;2.50;99.90
1179;DHT22;578;48.408;10.004;2023-02-01T05:25:08;2.50;99.90
1179;DHT22;578;48.408;10.004;2023-02-01T05:27:34;2.50;99.90
1179;DHT22;578;48.408;10.004;2023-02-01T05:30:02;2.50;99.90
1179;DHT22;578;48.408;10.004;2023-02-01T05:32:29;2.50;99.90
1179;DHT22;578;48.408;10.004;2023-02-01T05:34:57;2.50;99.90
1179;DHT22;578;48.408;10.004;2023-02-01T05:37:24;2.50;99.90
1179;DHT22;578;48.408;10.004;2023-02-01T05:39:50;2.50;99.90
1179;DHT22;578;48.408;10.004;2023-02-01T05:42:17;2.50;99.90
1179;DHT22;578;48.408;10.004;2023-02-01T05:44:44;2.50;99.90
1179;DHT22;578;48.408;10.004;2023-02-01T05:47:11;2.50;99.90
1179;DHT22;578;48.408;10.004;2023-02-01T05:49:37;2.50;99.90
1179;DHT22;578;48.408;10.004;2023-02-01T05:52:06;2.50;99.90
1179;DHT22;578;48.408;10.004;2023-02-01T05:54:32;2.50;99.90
1179;DHT22;578;48.408;10.004;2023-02-01T05:56:59;2.50;99.90
1179;DHT22;578;48.408;10.004;2023-02-01T05:59:26;2.50;99.90
1179;DHT22;578;48.408;10.004;2023-02-01T06:01:52;2.60;99.90
1179;DHT22;578;48.408;10.004;2023-02-01T06:04:19;2.60;99.90
1179;DHT22;578;48.408;10.004;2023-02-01T06:06:46;2.60;99.90
1179;DHT22;578;48.408;10.004;2023-02-01T06:09:15;2.50;99.90
1179;DHT22;578;48.408;10.004;2023-02-01T06:11:42;2.60;99.90
1179;DHT22;578;48.408;10.004;2023-02-01T06:14:09;2.60;99.90
1179;DHT22;578;48.408;10.004;2023-02-01T06:16:35;2.60;99.90
1179;DHT22;578;48.408;10.004;2023-02-01T06:19:02;2.60;99.90
1179;DHT22;578;48.408;10.004;2023-02-01T06:21:29;2.50;99.90
1179;DHT22;578;48.408;10.004;2023-02-01T06:23:55;2.60;99.90
1179;DHT22;578;48.408;10.004;2023-02-01T06:26:24;2.60;99.90
1179;DHT22;578;48.408;10.004;2023-02-01T06:28:51;2.50;99.90
1179;DHT22;578;48.408;10.004;2023-02-01T06:31:18;2.50;99.90
1179;DHT22;578;48.408;10.004;2023-02-01T06:33:45;2.50;99.90
1179;DHT22;578;48.408;10.004;2023-02-01T06:36:12;2.50;99.90
1179;DHT22;578;48.408;10.004;2023-02-01T06:38:40;2.60;99.90
1179;DHT22;578;48.408;10.004;2023-02-01T06:41:08;2.60;99.90
1179;DHT22;578;48.408;10.004;2023-02-01T06:43:36;2.70;99.90
1179;DHT22;578;48.408;10.004;2023-02-01T06:46:04;2.70;99.90
1179;DHT22;578;48.408;10.004;2023-02-01T06:48:32;2.70;99.90
1179;DHT22;578;48.408;10.004;2023-02-01T06:50:58;2.70;99.90
1179;DHT22;578;48.408;10.004;2023-02-01T06:53:26;2.70;99.90
1179;DHT22;578;48.408;10.004;2023-02-01T06:55:54;2.70;99.90
1179;DHT22;578;48.408;10.004;2023-02-01T06:58:21;2.70;99.90
1179;DHT22;578;48.408;10.004;2023-02-01T07:00:49;2.70;99.90
1179;DHT22;578;48.408;10.004;2023-02-01T07:03:16;2.70;99.90
1179;DHT22;578;48.408;10.004;2023-02-01T07:05:43;2.70;99.90
1179;DHT22;578;48.408;10.004;2023-02-01T07:08:09;2.80;99.90
1179;DHT22;578;48.408;10.004;2023-02-01T07:10:37;2.70;99.90
1179;DHT22;578;48.408;10.004;2023-02-01T07:13:04;2.70;99.90
1179;DHT22;578;48.408;10.004;2023-02-01T07:15:30;2.70;99.90
1179;DHT22;578;48.408;10.004;2023-02-01T07:17:58;2.80;99.90
1179;DHT22;578;48.408;10.004;2023-02-01T07:20:25;2.80;99.90
1179;DHT22;578;48.408;10.004;2023-02-01T07:22:54;2.80;99.90
1179;DHT22;578;48.408;10.004;2023-02-01T07:25:21;2.90;99.90
1179;DHT22;578;48.408;10.004;2023-02-01T07:27:48;2.90;99.90
1179;DHT22;578;48.408;10.004;2023-02-01T07:30:15;2.80;99.90
1179;DHT22;578;48.408;10.004;2023-02-01T07:32:42;2.90;99.90
1179;DHT22;578;48.408;10.004;2023-02-01T07:35:10;2.90;99.90
1179;DHT22;578;48.408;10.004;2023-02-01T07:37:36;3.00;99.90
1179;DHT22;578;48.408;10.004;2023-02-01T07:40:04;3.00;99.90
1179;DHT22;578;48.408;10.004;2023-02-01T07:42:31;3.00;99.90
1179;DHT22;578;48.408;10.004;2023-02-01T07:44:58;3.10;99.90
1179;DHT22;578;48.408;10.004;2023-02-01T07:47:24;3.10;99.90
1179;DHT22;578;48.408;10.004;2023-02-01T07:49:51;3.20;99.90
1179;DHT22;578;48.408;10.004;2023-02-01T07:52:19;3.20;99.90
1179;DHT22;578;48.408;10.004;2023-02-01T07:54:46;3.20;99.90
1179;DHT22;578;48.408;10.004;2023-02-01T07:57:12;3.20;99.90
1179;DHT22;578;48.408;10.004;2023-02-01T07:59:39;3.20;99.90
1179;DHT22;578;48.408;10.004;2023-02-01T08:02:26;3.30;99.90
1179;DHT22;578;48.408;10.004;2023-02-01T08:04:52;3.30;99.90
1179;DHT22;578;48.408;10.004;2023-02-01T08:07:20;3.30;99.90
1179;DHT22;578;48.408;10.004;2023-02-01T08:09:47;3.30;99.90
1179;DHT22;578;48.408;10.004;2023-02-01T08:12:14;3.30;99.90
1179;DHT22;578;48.408;10.004;2023-02-01T08:14:40;3.40;99.90
1179;DHT22;578;48.408;10.004;2023-02-01T08:17:07;3.40;99.90
1179;DHT22;578;48.408;10.004;2023-02-01T08:19:34;3.50;99.90
1179;DHT22;578;48.408;10.004;2023-02-01T08:22:00;3.50;99.90
1179;DHT22;578;48.408;10.004;2023-02-01T08:24:33;3.60;99.90
1179;DHT22;578;48.408;10.004;2023-02-01T08:27:00;3.60;99.90
1179;DHT22;578;48.408;10.004;2023-02-01T08:29:27;3.70;99.90
1179;DHT22;578;48.408;10.004;2023-02-01T08:31:54;3.70;99.90
1179;DHT22;578;48.408;10.004;2023-02-01T08:34:21;3.70;99.90
1179;DHT22;578;48.408;10.004;2023-02-01T08:36:47;3.70;99.90
1179;DHT22;578;48.408;10.004;2023-02-01T08:39:14;3.70;99.90
1179;DHT22;578;48.408;10.004;2023-02-01T08:41:42;3.70;99.90
1179;DHT22;578;48.408;10.004;2023-02-01T08:44:29;3.70;99.90
1179;DHT22;578;48.408;10.004;2023-02-01T08:46:56;3.80;99.90
1179;DHT22;578;48.408;10.004;2023-02-01T08:49:22;3.80;99.90
1179;DHT22;578;48.408;10.004;2023-02-01T08:51:49;3.80;99.90
1179;DHT22;578;48.408;10.004;2023-02-01T08:54:16;4.00;99.90
1179;DHT22;578;48.408;10.004;2023-02-01T08:56:44;4.20;99.90
1179;DHT22;578;48.408;10.004;2023-02-01T08:59:10;4.10;99.90
1179;DHT22;578;48.408;10.004;2023-02-01T09:01:37;4.50;99.90
1179;DHT22;578;48.408;10.004;2023-02-01T09:04:04;4.50;99.90
1179;DHT22;578;48.408;10.004;2023-02-01T09:06:30;4.50;99.90
1179;DHT22;578;48.408;10.004;2023-02-01T09:08:57;4.50;99.90
1179;DHT22;578;48.408;10.004;2023-02-01T09:11:24;4.40;99.90
1179;DHT22;578;48.408;10.004;2023-02-01T09:13:53;4.30;99.90
1179;DHT22;578;48.408;10.004;2023-02-01T09:16:20;4.30;99.90
1179;DHT22;578;48.408;10.004;2023-02-01T09:18:46;4.40;99.90
1179;DHT22;578;48.408;10.004;2023-02-01T09:21:13;4.50;99.90
1179;DHT22;578;48.408;10.004;2023-02-01T09:23:40;4.40;99.90
1179;DHT22;578;48.408;10.004;2023-02-01T09:26:06;4.50;99.90
1179;DHT22;578;48.408;10.004;2023-02-01T09:28:33;4.70;99.90
1179;DHT22;578;48.408;10.004;2023-02-01T09:31:01;4.70;99.90
1179;DHT22;578;48.408;10.004;2023-02-01T09:33:29;4.60;99.90
1179;DHT22;578;48.408;10.004;2023-02-01T09:35:56;4.60;99.90
1179;DHT22;578;48.408;10.004;2023-02-01T09:38:24;4.60;99.90
1179;DHT22;578;48.408;10.004;2023-02-01T09:40:53;4.60;99.90
1179;DHT22;578;48.408;10.004;2023-02-01T09:43:29;4.50;99.90
1179;DHT22;578;48.408;10.004;2023-02-01T09:46:16;4.50;99.90
1179;DHT22;578;48.408;10.004;2023-02-01T09:48:45;4.50;99.90
1179;DHT22;578;48.408;10.004;2023-02-01T09:51:16;4.60;99.90
1179;DHT22;578;48.408;10.004;2023-02-01T09:53:48;4.50;99.90
1179;DHT22;578;48.408;10.004;2023-02-01T09:56:23;4.50;99.90
1179;DHT22;578;48.408;10.004;2023-02-01T09:58:57;4.60;99.90
1179;DHT22;578;48.408;10.004;2023-02-01T10:01:27;4.50;99.90
1179;DHT22;578;48.408;10.004;2023-02-01T10:04:01;4.60;99.90
1179;DHT22;578;48.408;10.004;2023-02-01T10:06:36;4.60;99.90
1179;DHT22;578;48.408;10.004;2023-02-01T10:09:20;4.60;99.90
1179;DHT22;578;48.408;10.004;2023-02-01T10:12:12;4.60;99.90
1179;DHT22;578;48.408;10.004;2023-02-01T10:14:52;4.60;99.90
1179;DHT22;578;48.408;10.004;2023-02-01T10:17:36;4.50;99.90
1179;DHT22;578;48.408;10.004;2023-02-01T10:20:16;4.50;99.90
1179;DHT22;578;48.408;10.004;2023-02-01T10:22:51;4.40;99.90
1179;DHT22;578;48.408;10.004;2023-02-01T10:25:26;4.40;99.90
1179;DHT22;578;48.408;10.004;2023-02-01T10:27:53;4.30;99.90
1179;DHT22;578;48.408;10.004;2023-02-01T10:30:22;4.30;99.90
1179;DHT22;578;48.408;10.004;2023-02-01T10:32:55;4.30;99.90
1179;DHT22;578;48.408;10.004;2023-02-01T10:35:27;4.30;99.90
1179;DHT22;578;48.408;10.004;2023-02-01T10:37:58;4.30;99.90
1179;DHT22;578;48.408;10.004;2023-02-01T10:40:26;4.30;99.90
1179;DHT22;578;48.408;10.004;2023-02-01T10:42:56;4.30;99.90
1179;DHT22;578;48.408;10.004;2023-02-01T10:45:26;4.30;99.90
1179;DHT22;578;48.408;10.004;2023-02-01T10:47:55;4.30;99.90
1179;DHT22;578;48.408;10.004;2023-02-01T10:50:33;4.40;99.90
1179;DHT22;578;48.408;10.004;2023-02-01T10:53:04;4.50;99.90
1179;DHT22;578;48.408;10.004;2023-02-01T10:55:38;4.60;99.90
1179;DHT22;578;48.408;10.004;2023-02-01T10:58:07;4.70;99.90
1179;DHT22;578;48.408;10.004;2023-02-01T11:00:44;4.90;99.90
1179;DHT22;578;48.408;10.004;2023-02-01T11:03:34;5.00;99.90
1179;DHT22;578;48.408;10.004;2023-02-01T11:06:09;4.90;99.90
1179;DHT22;578;48.408;10.004;2023-02-01T11:08:42;4.80;99.90
1179;DHT22;578;48.408;10.004;2023-02-01T11:11:10;4.80;99.90
1179;DHT22;578;48.408;10.004;2023-02-01T11:13:39;4.50;99.90
1179;DHT22;578;48.408;10.004;2023-02-01T11:16:06;4.50;99.90
1179;DHT22;578;48.408;10.004;2023-02-01T11:18:38;4.50;99.90
1179;DHT22;578;48.408;10.004;2023-02-01T11:21:06;4.40;99.90
1179;DHT22;578;48.408;10.004;2023-02-01T11:23:33;4.50;99.90
1179;DHT22;578;48.408;10.004;2023-02-01T11:26:10;4.50;99.90
1179;DHT22;578;48.408;10.004;2023-02-01T11:28:40;4.50;99.90
1179;DHT22;578;48.408;10.004;2023-02-01T11:31:11;4.50;99.90
1179;DHT22;578;48.408;10.004;2023-02-01T11:33:46;4.60;99.90
1179;DHT22;578;48.408;10.004;2023-02-01T11:36:16;4.70;99.90
1179;DHT22;578;48.408;10.004;2023-02-01T11:38:47;4.70;99.90
1179;DHT22;578;48.408;10.004;2023-02-01T11:41:22;5.00;99.90
1179;DHT22;578;48.408;10.004;2023-02-01T11:43:55;5.10;99.90
1179;DHT22;578;48.408;10.004;2023-02-01T11:46:24;5.20;99.90
1179;DHT22;578;48.408;10.004;2023-02-01T11:48:56;5.30;99.90
1179;DHT22;578;48.408;10.004;2023-02-01T11:51:37;5.30;99.90
1179;DHT22;578;48.408;10.004;2023-02-01T11:54:18;5.10;99.90
1179;DHT22;578;48.408;10.004;2023-02-01T11:57:00;4.90;99.90
1179;DHT22;578;48.408;10.004;2023-02-01T11:59:48;4.90;99.90
1179;DHT22;578;48.408;10.004;2023-02-01T12:02:40;4.90;99.90
1179;DHT22;578;48.408;10.004;2023-02-01T12:05:23;5.00;99.90
1179;DHT22;578;48.408;10.004;2023-02-01T12:08:02;5.10;99.90
1179;DHT22;578;48.408;10.004;2023-02-01T12:10:41;5.30;97.20
1179;DHT22;578;48.408;10.004;2023-02-01T12:13:18;5.40;93.10
1179;DHT22;578;48.408;10.004;2023-02-01T12:15:56;5.60;92.80
1179;DHT22;578;48.408;10.004;2023-02-01T12:18:51;5.60;97.70
1179;DHT22;578;48.408;10.004;2023-02-01T12:21:32;5.60;99.90
1179;DHT22;578;48.408;10.004;2023-02-01T12:24:28;5.60;99.90
1179;DHT22;578;48.408;10.004;2023-02-01T12:27:06;5.60;99.90
1179;DHT22;578;48.408;10.004;2023-02-01T12:29:53;5.40;99.90
1179;DHT22;578;48.408;10.004;2023-02-01T12:32:36;5.50;99.90
1179;DHT22;578;48.408;10.004;2023-02-01T12:35:41;5.50;99.90
1179;DHT22;578;48.408;10.004;2023-02-01T12:38:26;5.40;99.90
1179;DHT22;578;48.408;10.004;2023-02-01T12:41:11;5.40;99.90
1179;DHT22;578;48.408;10.004;2023-02-01T12:43:46;5.40;99.90
1179;DHT22;578;48.408;10.004;2023-02-01T12:46:16;5.40;99.90
1179;DHT22;578;48.408;10.004;2023-02-01T12:48:53;5.30;99.90
1179;DHT22;578;48.408;10.004;2023-02-01T12:51:24;5.30;99.90
1179;DHT22;578;48.408;10.004;2023-02-01T12:53:56;5.20;99.90
1179;DHT22;578;48.408;10.004;2023-02-01T12:56:28;5.30;99.90
1179;DHT22;578;48.408;10.004;2023-02-01T12:59:00;5.30;99.90
1179;DHT22;578;48.408;10.004;2023-02-01T13:01:33;5.30;99.90
1179;DHT22;578;48.408;10.004;2023-02-01T13:04:04;5.40;99.90
1179;DHT22;578;48.408;10.004;2023-02-01T13:06:38;5.40;98.10
1179;DHT22;578;48.408;10.004;2023-02-01T13:09:13;5.40;97.70
1179;DHT22;578;48.408;10.004;2023-02-01T13:11:43;5.40;93.40
1179;DHT22;578;48.408;10.004;2023-02-01T13:14:19;5.40;93.10
1179;DHT22;578;48.408;10.004;2023-02-01T13:16:51;5.40;94.00
1179;DHT22;578;48.408;10.004;2023-02-01T13:19:24;5.40;93.80
1179;DHT22;578;48.408;10.004;2023-02-01T13:21:56;5.30;93.90
1179;DHT22;578;48.408;10.004;2023-02-01T13:24:35;5.40;92.40
1179;DHT22;578;48.408;10.004;2023-02-01T13:27:03;5.40;92.30
1179;DHT22;578;48.408;10.004;2023-02-01T13:29:30;5.40;93.80
1179;DHT22;578;48.408;10.004;2023-02-01T13:32:11;5.40;92.40
1179;DHT22;578;48.408;10.004;2023-02-01T13:35:12;5.20;92.60
1179;DHT22;578;48.408;10.004;2023-02-01T13:37:59;5.20;93.10
1179;DHT22;578;48.408;10.004;2023-02-01T13:40:39;5.20;92.70
1179;DHT22;578;48.408;10.004;2023-02-01T13:43:12;5.20;92.70
1179;DHT22;578;48.408;10.004;2023-02-01T13:45:47;5.20;93.30
1179;DHT22;578;48.408;10.004;2023-02-01T13:48:21;5.10;92.50
1179;DHT22;578;48.408;10.004;2023-02-01T13:50:52;5.10;91.80
1179;DHT22;578;48.408;10.004;2023-02-01T13:53:26;5.20;93.20
1179;DHT22;578;48.408;10.004;2023-02-01T13:56:00;5.20;92.10
1179;DHT22;578;48.408;10.004;2023-02-01T13:58:33;5.20;92.30
1179;DHT22;578;48.408;10.004;2023-02-01T14:01:33;5.10;93.10
1179;DHT22;578;48.408;10.004;2023-02-01T14:04:05;5.10;92.70
1179;DHT22;578;48.408;10.004;2023-02-01T14:06:39;5.10;92.50
1179;DHT22;578;48.408;10.004;2023-02-01T14:09:17;5.10;92.80
1179;DHT22;578;48.408;10.004;2023-02-01T14:11:48;5.00;93.10
1179;DHT22;578;48.408;10.004;2023-02-01T14:14:46;5.00;94.30
1179;DHT22;578;48.408;10.004;2023-02-01T14:17:35;5.00;94.70
1179;DHT22;578;48.408;10.004;2023-02-01T14:20:36;4.90;95.30
1179;DHT22;578;48.408;10.004;2023-02-01T14:23:12;5.00;94.30
1179;DHT22;578;48.408;10.004;2023-02-01T14:25:40;4.80;95.80
1179;DHT22;578;48.408;10.004;2023-02-01T14:28:16;4.80;95.50
1179;DHT22;578;48.408;10.004;2023-02-01T14:30:47;4.90;96.70
1179;DHT22;578;48.408;10.004;2023-02-01T14:33:20;4.90;95.40
1179;DHT22;578;48.408;10.004;2023-02-01T14:36:00;4.90;95.80
1179;DHT22;578;48.408;10.004;2023-02-01T14:38:28;4.90;95.90
1179;DHT22;578;48.408;10.004;2023-02-01T14:41:11;4.80;95.60
1179;DHT22;578;48.408;10.004;2023-02-01T14:44:13;4.80;95.70
1179;DHT22;578;48.408;10.004;2023-02-01T14:49:52;4.80;96.20
1179;DHT22;578;48.408;10.004;2023-02-01T14:52:23;4.80;95.70
1179;DHT22;578;48.408;10.004;2023-02-01T14:54:54;4.90;95.20
1179;DHT22;578;48.408;10.004;2023-02-01T14:57:25;4.90;94.40
1179;DHT22;578;48.408;10.004;2023-02-01T14:59:59;4.90;94.30
1179;DHT22;578;48.408;10.004;2023-02-01T15:02:27;4.90;94.50
1179;DHT22;578;48.408;10.004;2023-02-01T15:04:56;4.90;94.30
1179;DHT22;578;48.408;10.004;2023-02-01T15:07:24;4.80;94.50
1179;DHT22;578;48.408;10.004;2023-02-01T15:09:54;4.90;93.00
1179;DHT22;578;48.408;10.004;2023-02-01T15:12:25;4.90;94.30
1179;DHT22;578;48.408;10.004;2023-02-01T15:15:21;4.80;94.80
1179;DHT22;578;48.408;10.004;2023-02-01T15:17:52;4.70;95.40
1179;DHT22;578;48.408;10.004;2023-02-01T15:20:23;4.70;96.50
1179;DHT22;578;48.408;10.004;2023-02-01T15:22:55;4.80;95.50
1179;DHT22;578;48.408;10.004;2023-02-01T15:25:24;4.80;95.60
1179;DHT22;578;48.408;10.004;2023-02-01T15:27:51;4.80;95.50
1179;DHT22;578;48.408;10.004;2023-02-01T15:30:20;4.70;96.20
1179;DHT22;578;48.408;10.004;2023-02-01T15:32:47;4.80;95.90
1179;DHT22;578;48.408;10.004;2023-02-01T15:35:34;4.70;96.30
1179;DHT22;578;48.408;10.004;2023-02-01T15:41:04;4.80;96.20
1179;DHT22;578;48.408;10.004;2023-02-01T15:43:34;4.70;96.10
1179;DHT22;578;48.408;10.004;2023-02-01T15:46:03;4.80;95.90
1179;DHT22;578;48.408;10.004;2023-02-01T15:48:37;4.80;95.80
1179;DHT22;578;48.408;10.004;2023-02-01T15:51:10;4.70;96.10
1179;DHT22;578;48.408;10.004;2023-02-01T15:53:37;4.70;96.00
1179;DHT22;578;48.408;10.004;2023-02-01T15:56:05;4.80;96.30
1179;DHT22;578;48.408;10.004;2023-02-01T15:58:31;4.70;96.30
1179;DHT22;578;48.408;10.004;2023-02-01T16:01:01;4.70;96.30
1179;DHT22;578;48.408;10.004;2023-02-01T16:03:35;4.70;97.10
1179;DHT22;578;48.408;10.004;2023-02-01T16:06:06;4.80;95.40
1179;DHT22;578;48.408;10.004;2023-02-01T16:08:33;4.70;96.20
1179;DHT22;578;48.408;10.004;2023-02-01T16:11:20;4.70;96.80
1179;DHT22;578;48.408;10.004;2023-02-01T16:13:47;4.60;96.90
1179;DHT22;578;48.408;10.004;2023-02-01T16:16:14;4.80;95.80
1179;DHT22;578;48.408;10.004;2023-02-01T16:18:41;4.60;97.10
1179;DHT22;578;48.408;10.004;2023-02-01T16:21:09;4.60;97.40
1179;DHT22;578;48.408;10.004;2023-02-01T16:23:36;4.70;97.20
1179;DHT22;578;48.408;10.004;2023-02-01T16:26:03;4.70;96.60
1179;DHT22;578;48.408;10.004;2023-02-01T16:28:31;4.70;96.30
1179;DHT22;578;48.408;10.004;2023-02-01T16:30:58;4.70;96.70
1179;DHT22;578;48.408;10.004;2023-02-01T16:33:25;4.70;96.50
1179;DHT22;578;48.408;10.004;2023-02-01T16:35:52;4.70;96.50
1179;DHT22;578;48.408;10.004;2023-02-01T16:38:24;4.70;96.80
1179;DHT22;578;48.408;10.004;2023-02-01T16:40:51;4.70;96.50
1179;DHT22;578;48.408;10.004;2023-02-01T16:43:20;4.80;95.90
1179;DHT22;578;48.408;10.004;2023-02-01T16:45:48;4.70;97.10
1179;DHT22;578;48.408;10.004;2023-02-01T16:48:23;4.70;96.70
1179;DHT22;578;48.408;10.004;2023-02-01T16:50:53;4.70;97.00
1179;DHT22;578;48.408;10.004;2023-02-01T16:53:21;4.60;97.30
1179;DHT22;578;48.408;10.004;2023-02-01T16:55:50;4.70;96.80
1179;DHT22;578;48.408;10.004;2023-02-01T16:58:18;4.70;97.40
1179;DHT22;578;48.408;10.004;2023-02-01T17:00:46;4.60;97.00